Sugar Land, TX

2:28 PM CST on November 23, 2014 (GMT -0600)
Houston-Southwest | Change Station
CLOSE
Current Station
Airport
Location: Houston / Southwest Airport,
Elevation: 69 ft
Nearby Weather Stations

Elev 69 ft 29.50 °N, 95.48 °W | Updated 13 minutes ago

Clear
Clear
70 °F
Feels Like 70 °F
N
12
Wind Variable Wind from SW
Gusts 20 mph

Today
High -- | Low -- °F
--% Chance of Precip.
Yesterday
High -- | Low -- °F
Precip. -- in
6:53 AM 5:24 PM
New Moon, 2% visible
Pressure 29.56 in
Visibility 10.0 miles
Clouds Clear
Dew Point 47 °F
Humidity 43%
Rainfall 0.00 in
Snow Depth Not available.
UV 3 out of 12
Pollen .40 out of 12
Air Quality Not available.
Flu Activity Not available.
METAR KAXH 232015Z AUTO 22010G17KT 10SM CLR 21/08 A2956 RMK AO2 T02110081

More Conditions Fewer Conditions

Pressure 29.56 in
Visibility 10.0 miles
Clouds Clear
Dew Point 47 °F
Humidity 43%
Rainfall 0.00 in
Snow Depth Not available.
UV 3 out of 12
Pollen .40 out of 12
Air Quality Not available.
Flu Activity Not available.
METAR KAXH 232015Z AUTO 22010G17KT 10SM CLR 21/08 A2956 RMK AO2 T02110081

More Conditions Fewer Conditions

10-Day Weather Forecast

Almanac

Astronomy

Nov. 23, 2014 Rise Set
Actual Time
Civil Twilight
Nautical Twilight
Astronomical Twilight
Moon
Length of Visible Light
Length of Day
Tomorrow will be .
, % of the Moon is Illuminated

Today's Extremes

State Highs State Lows

Community

WunderPhotos

Upload Photos

1,773,169 photos uploaded!

WunderBlogs® & News

Nearby

Air Quality

  Air Quality AQ Index Pollutant
Not available.

Snow Depth

Station Depth Elevation

Earthquake Activity

City Distance Mag. Time & Date
Minimum magnitude displayed is 2.5.

Coastal Water Temperatures

Place Temperature

Nearby Weather Stations